sensor_id;sensor_type;location;lat;lon;timestamp;P1;durP1;ratioP1;P2;durP2;ratioP2
23121;SDS011;11730;51.248;22.534;2022-09-13T00:01:28;16.88;;;13.50;;
23121;SDS011;11730;51.248;22.534;2022-09-13T00:03:55;18.38;;;13.57;;
23121;SDS011;11730;51.248;22.534;2022-09-13T00:06:22;17.77;;;12.50;;
23121;SDS011;11730;51.248;22.534;2022-09-13T00:08:49;17.15;;;12.98;;
23121;SDS011;11730;51.248;22.534;2022-09-13T00:11:20;20.83;;;13.43;;
23121;SDS011;11730;51.248;22.534;2022-09-13T00:13:48;22.02;;;13.27;;
23121;SDS011;11730;51.248;22.534;2022-09-13T00:16:16;21.00;;;13.60;;
23121;SDS011;11730;51.248;22.534;2022-09-13T00:18:45;22.15;;;13.90;;
23121;SDS011;11730;51.248;22.534;2022-09-13T00:21:14;18.92;;;12.75;;
23121;SDS011;11730;51.248;22.534;2022-09-13T00:23:42;20.48;;;13.35;;
23121;SDS011;11730;51.248;22.534;2022-09-13T00:26:14;17.45;;;12.75;;
23121;SDS011;11730;51.248;22.534;2022-09-13T00:28:43;17.75;;;13.10;;
23121;SDS011;11730;51.248;22.534;2022-09-13T00:31:11;17.92;;;12.75;;
23121;SDS011;11730;51.248;22.534;2022-09-13T00:33:38;19.52;;;13.50;;
23121;SDS011;11730;51.248;22.534;2022-09-13T00:36:08;18.58;;;13.65;;
23121;SDS011;11730;51.248;22.534;2022-09-13T00:38:36;18.92;;;14.00;;
23121;SDS011;11730;51.248;22.534;2022-09-13T00:41:04;18.15;;;13.43;;
23121;SDS011;11730;51.248;22.534;2022-09-13T00:46:12;21.15;;;15.00;;
23121;SDS011;11730;51.248;22.534;2022-09-13T00:48:43;19.73;;;13.93;;
23121;SDS011;11730;51.248;22.534;2022-09-13T00:51:12;18.13;;;13.90;;
23121;SDS011;11730;51.248;22.534;2022-09-13T00:53:41;20.40;;;14.38;;
23121;SDS011;11730;51.248;22.534;2022-09-13T00:56:36;20.05;;;13.85;;
23121;SDS011;11730;51.248;22.534;2022-09-13T00:59:05;21.42;;;14.20;;
23121;SDS011;11730;51.248;22.534;2022-09-13T01:01:43;19.13;;;14.60;;
23121;SDS011;11730;51.248;22.534;2022-09-13T01:04:13;22.15;;;14.35;;
23121;SDS011;11730;51.248;22.534;2022-09-13T01:06:41;19.63;;;14.23;;
23121;SDS011;11730;51.248;22.534;2022-09-13T01:09:09;19.80;;;14.85;;
23121;SDS011;11730;51.248;22.534;2022-09-13T01:14:07;18.73;;;14.60;;
23121;SDS011;11730;51.248;22.534;2022-09-13T01:16:35;20.00;;;15.10;;
23121;SDS011;11730;51.248;22.534;2022-09-13T01:19:02;20.52;;;14.32;;
23121;SDS011;11730;51.248;22.534;2022-09-13T01:30:16;19.55;;;14.63;;
23121;SDS011;11730;51.248;22.534;2022-09-13T01:33:23;18.00;;;14.48;;
23121;SDS011;11730;51.248;22.534;2022-09-13T01:39:07;18.15;;;13.75;;
23121;SDS011;11730;51.248;22.534;2022-09-13T01:49:32;20.58;;;14.45;;
23121;SDS011;11730;51.248;22.534;2022-09-13T01:57:42;19.85;;;13.90;;
23121;SDS011;11730;51.248;22.534;2022-09-13T02:00:14;18.13;;;13.80;;
23121;SDS011;11730;51.248;22.534;2022-09-13T02:02:48;21.20;;;13.68;;
23121;SDS011;11730;51.248;22.534;2022-09-13T02:05:36;16.48;;;13.52;;
23121;SDS011;11730;51.248;22.534;2022-09-13T02:08:23;24.30;;;14.80;;
23121;SDS011;11730;51.248;22.534;2022-09-13T02:11:03;23.73;;;15.85;;
23121;SDS011;11730;51.248;22.534;2022-09-13T02:13:36;25.00;;;15.75;;
23121;SDS011;11730;51.248;22.534;2022-09-13T02:16:22;19.80;;;15.15;;
23121;SDS011;11730;51.248;22.534;2022-09-13T02:18:58;22.80;;;14.88;;
23121;SDS011;11730;51.248;22.534;2022-09-13T02:21:35;24.10;;;15.82;;
23121;SDS011;11730;51.248;22.534;2022-09-13T02:24:15;20.40;;;14.63;;
23121;SDS011;11730;51.248;22.534;2022-09-13T02:26:46;20.77;;;15.00;;
23121;SDS011;11730;51.248;22.534;2022-09-13T02:29:18;19.75;;;13.88;;
23121;SDS011;11730;51.248;22.534;2022-09-13T02:31:51;19.77;;;14.52;;
23121;SDS011;11730;51.248;22.534;2022-09-13T02:34:45;19.67;;;13.90;;
23121;SDS011;11730;51.248;22.534;2022-09-13T02:37:19;19.33;;;14.57;;
23121;SDS011;11730;51.248;22.534;2022-09-13T02:39:49;22.60;;;16.38;;
23121;SDS011;11730;51.248;22.534;2022-09-13T02:42:25;20.13;;;14.82;;
23121;SDS011;11730;51.248;22.534;2022-09-13T02:45:01;23.77;;;14.65;;
23121;SDS011;11730;51.248;22.534;2022-09-13T02:55:41;21.83;;;14.88;;
23121;SDS011;11730;51.248;22.534;2022-09-13T03:01:33;22.13;;;15.02;;
23121;SDS011;11730;51.248;22.534;2022-09-13T03:04:02;20.88;;;15.70;;
23121;SDS011;11730;51.248;22.534;2022-09-13T03:06:29;20.98;;;14.88;;
23121;SDS011;11730;51.248;22.534;2022-09-13T03:08:59;20.65;;;15.45;;
23121;SDS011;11730;51.248;22.534;2022-09-13T03:22:34;23.67;;;15.10;;
23121;SDS011;11730;51.248;22.534;2022-09-13T03:27:59;21.63;;;15.80;;
23121;SDS011;11730;51.248;22.534;2022-09-13T03:30:40;28.70;;;17.08;;
23121;SDS011;11730;51.248;22.534;2022-09-13T03:34:01;24.42;;;15.70;;
23121;SDS011;11730;51.248;22.534;2022-09-13T03:36:10;20.40;;;14.55;;
23121;SDS011;11730;51.248;22.534;2022-09-13T03:39:07;23.13;;;15.10;;
23121;SDS011;11730;51.248;22.534;2022-09-13T03:41:41;19.52;;;14.90;;
23121;SDS011;11730;51.248;22.534;2022-09-13T03:46:48;19.45;;;14.50;;
23121;SDS011;11730;51.248;22.534;2022-09-13T03:49:20;20.02;;;14.82;;
23121;SDS011;11730;51.248;22.534;2022-09-13T03:51:48;19.40;;;15.00;;
23121;SDS011;11730;51.248;22.534;2022-09-13T03:59:37;20.02;;;14.82;;
23121;SDS011;11730;51.248;22.534;2022-09-13T04:02:07;22.38;;;15.48;;
23121;SDS011;11730;51.248;22.534;2022-09-13T04:04:38;18.70;;;13.88;;
23121;SDS011;11730;51.248;22.534;2022-09-13T04:07:05;21.90;;;15.07;;
23121;SDS011;11730;51.248;22.534;2022-09-13T04:09:33;22.08;;;14.00;;
23121;SDS011;11730;51.248;22.534;2022-09-13T04:12:00;23.65;;;15.73;;
23121;SDS011;11730;51.248;22.534;2022-09-13T04:14:27;22.27;;;14.82;;
23121;SDS011;11730;51.248;22.534;2022-09-13T04:16:56;18.52;;;13.40;;
23121;SDS011;11730;51.248;22.534;2022-09-13T04:19:23;20.65;;;14.68;;
23121;SDS011;11730;51.248;22.534;2022-09-13T04:21:52;22.65;;;15.52;;
23121;SDS011;11730;51.248;22.534;2022-09-13T04:24:23;19.48;;;14.38;;
23121;SDS011;11730;51.248;22.534;2022-09-13T04:26:52;26.92;;;14.40;;
23121;SDS011;11730;51.248;22.534;2022-09-13T04:29:20;20.60;;;14.98;;
23121;SDS011;11730;51.248;22.534;2022-09-13T04:31:48;18.58;;;13.98;;
23121;SDS011;11730;51.248;22.534;2022-09-13T04:34:16;19.00;;;13.80;;
23121;SDS011;11730;51.248;22.534;2022-09-13T04:36:44;28.52;;;15.70;;
23121;SDS011;11730;51.248;22.534;2022-09-13T04:39:11;23.15;;;14.60;;
23121;SDS011;11730;51.248;22.534;2022-09-13T04:41:41;19.00;;;14.77;;
23121;SDS011;11730;51.248;22.534;2022-09-13T04:44:11;23.27;;;14.32;;
23121;SDS011;11730;51.248;22.534;2022-09-13T04:46:38;20.60;;;14.88;;
23121;SDS011;11730;51.248;22.534;2022-09-13T04:49:05;21.48;;;15.52;;
23121;SDS011;11730;51.248;22.534;2022-09-13T04:51:32;24.33;;;16.25;;
23121;SDS011;11730;51.248;22.534;2022-09-13T04:53:59;23.75;;;16.67;;
23121;SDS011;11730;51.248;22.534;2022-09-13T04:56:26;24.40;;;16.38;;
23121;SDS011;11730;51.248;22.534;2022-09-13T04:58:53;31.90;;;17.40;;
23121;SDS011;11730;51.248;22.534;2022-09-13T05:01:21;36.50;;;16.98;;
23121;SDS011;11730;51.248;22.534;2022-09-13T05:03:53;25.15;;;17.02;;
23121;SDS011;11730;51.248;22.534;2022-09-13T05:06:20;35.85;;;17.35;;
23121;SDS011;11730;51.248;22.534;2022-09-13T05:08:49;41.40;;;16.35;;
23121;SDS011;11730;51.248;22.534;2022-09-13T05:11:18;31.67;;;15.57;;
23121;SDS011;11730;51.248;22.534;2022-09-13T05:13:47;35.00;;;16.08;;
23121;SDS011;11730;51.248;22.534;2022-09-13T05:16:21;25.58;;;15.93;;
23121;SDS011;11730;51.248;22.534;2022-09-13T05:18:49;31.40;;;14.82;;
23121;SDS011;11730;51.248;22.534;2022-09-13T05:21:17;28.13;;;14.93;;
23121;SDS011;11730;51.248;22.534;2022-09-13T05:23:47;21.27;;;14.05;;
23121;SDS011;11730;51.248;22.534;2022-09-13T05:26:15;20.88;;;14.00;;
23121;SDS011;11730;51.248;22.534;2022-09-13T05:28:43;38.95;;;15.35;;
23121;SDS011;11730;51.248;22.534;2022-09-13T05:31:20;40.90;;;16.35;;
23121;SDS011;11730;51.248;22.534;2022-09-13T05:33:57;35.05;;;15.52;;
23121;SDS011;11730;51.248;22.534;2022-09-13T05:36:26;30.45;;;13.32;;
23121;SDS011;11730;51.248;22.534;2022-09-13T05:38:54;38.17;;;13.90;;
23121;SDS011;11730;51.248;22.534;2022-09-13T05:41:41;24.95;;;13.27;;
23121;SDS011;11730;51.248;22.534;2022-09-13T05:44:08;34.85;;;15.05;;
23121;SDS011;11730;51.248;22.534;2022-09-13T05:46:39;22.77;;;12.20;;
23121;SDS011;11730;51.248;22.534;2022-09-13T05:49:06;23.63;;;11.57;;
23121;SDS011;11730;51.248;22.534;2022-09-13T05:51:33;16.00;;;11.48;;
23121;SDS011;11730;51.248;22.534;2022-09-13T05:54:01;18.00;;;11.50;;
23121;SDS011;11730;51.248;22.534;2022-09-13T05:56:29;19.23;;;11.07;;
23121;SDS011;11730;51.248;22.534;2022-09-13T05:58:57;14.68;;;11.23;;
23121;SDS011;11730;51.248;22.534;2022-09-13T06:01:25;15.60;;;11.23;;
23121;SDS011;11730;51.248;22.534;2022-09-13T06:03:54;13.57;;;10.75;;
23121;SDS011;11730;51.248;22.534;2022-09-13T06:06:22;13.73;;;11.38;;
23121;SDS011;11730;51.248;22.534;2022-09-13T06:08:51;18.15;;;11.35;;
23121;SDS011;11730;51.248;22.534;2022-09-13T06:11:18;15.23;;;10.98;;
23121;SDS011;11730;51.248;22.534;2022-09-13T06:13:46;18.00;;;12.95;;
23121;SDS011;11730;51.248;22.534;2022-09-13T06:16:13;15.68;;;12.18;;
23121;SDS011;11730;51.248;22.534;2022-09-13T06:18:41;12.55;;;9.52;;
23121;SDS011;11730;51.248;22.534;2022-09-13T06:21:10;11.82;;;8.73;;
23121;SDS011;11730;51.248;22.534;2022-09-13T06:23:44;10.73;;;7.10;;
23121;SDS011;11730;51.248;22.534;2022-09-13T06:26:17;10.77;;;7.00;;
23121;SDS011;11730;51.248;22.534;2022-09-13T06:28:46;8.52;;;6.45;;
23121;SDS011;11730;51.248;22.534;2022-09-13T06:31:14;10.23;;;5.57;;
23121;SDS011;11730;51.248;22.534;2022-09-13T06:33:43;6.05;;;5.20;;
23121;SDS011;11730;51.248;22.534;2022-09-13T06:36:11;6.95;;;5.53;;
23121;SDS011;11730;51.248;22.534;2022-09-13T06:38:40;8.60;;;4.82;;
23121;SDS011;11730;51.248;22.534;2022-09-13T06:41:08;9.77;;;5.53;;
23121;SDS011;11730;51.248;22.534;2022-09-13T06:43:37;11.90;;;6.55;;
23121;SDS011;11730;51.248;22.534;2022-09-13T06:46:09;5.28;;;3.72;;
23121;SDS011;11730;51.248;22.534;2022-09-13T06:48:49;5.80;;;3.80;;
23121;SDS011;11730;51.248;22.534;2022-09-13T06:51:21;6.72;;;3.72;;
23121;SDS011;11730;51.248;22.534;2022-09-13T06:53:49;8.45;;;4.22;;
23121;SDS011;11730;51.248;22.534;2022-09-13T06:58:48;7.32;;;4.38;;
23121;SDS011;11730;51.248;22.534;2022-09-13T07:01:18;7.45;;;4.25;;
23121;SDS011;11730;51.248;22.534;2022-09-13T07:03:54;6.95;;;3.50;;
23121;SDS011;11730;51.248;22.534;2022-09-13T07:06:27;6.78;;;3.92;;
23121;SDS011;11730;51.248;22.534;2022-09-13T07:08:56;5.50;;;3.20;;
23121;SDS011;11730;51.248;22.534;2022-09-13T07:11:25;4.82;;;3.50;;
23121;SDS011;11730;51.248;22.534;2022-09-13T07:13:55;5.38;;;4.50;;
23121;SDS011;11730;51.248;22.534;2022-09-13T07:16:24;6.43;;;3.50;;
23121;SDS011;11730;51.248;22.534;2022-09-13T07:18:54;6.57;;;3.90;;
23121;SDS011;11730;51.248;22.534;2022-09-13T07:21:22;4.65;;;3.67;;
23121;SDS011;11730;51.248;22.534;2022-09-13T07:23:50;6.50;;;3.55;;
23121;SDS011;11730;51.248;22.534;2022-09-13T07:26:18;3.80;;;3.40;;
23121;SDS011;11730;51.248;22.534;2022-09-13T07:28:47;7.22;;;4.18;;
23121;SDS011;11730;51.248;22.534;2022-09-13T07:31:18;6.63;;;3.50;;
23121;SDS011;11730;51.248;22.534;2022-09-13T07:33:56;4.05;;;3.42;;
23121;SDS011;11730;51.248;22.534;2022-09-13T07:36:26;4.57;;;3.72;;
23121;SDS011;11730;51.248;22.534;2022-09-13T07:38:54;7.80;;;3.67;;
23121;SDS011;11730;51.248;22.534;2022-09-13T07:41:21;4.22;;;3.17;;
23121;SDS011;11730;51.248;22.534;2022-09-13T07:43:50;4.97;;;3.35;;
23121;SDS011;11730;51.248;22.534;2022-09-13T07:46:21;3.70;;;3.13;;
23121;SDS011;11730;51.248;22.534;2022-09-13T07:48:51;6.20;;;3.33;;
23121;SDS011;11730;51.248;22.534;2022-09-13T07:51:21;3.75;;;2.83;;
23121;SDS011;11730;51.248;22.534;2022-09-13T07:53:50;6.00;;;3.05;;
23121;SDS011;11730;51.248;22.534;2022-09-13T07:56:33;3.10;;;2.78;;
23121;SDS011;11730;51.248;22.534;2022-09-13T07:59:02;3.47;;;2.47;;
23121;SDS011;11730;51.248;22.534;2022-09-13T08:01:35;3.95;;;2.70;;
23121;SDS011;11730;51.248;22.534;2022-09-13T08:04:05;5.07;;;3.08;;
23121;SDS011;11730;51.248;22.534;2022-09-13T08:06:35;2.80;;;2.38;;
23121;SDS011;11730;51.248;22.534;2022-09-13T08:09:03;3.80;;;2.42;;
23121;SDS011;11730;51.248;22.534;2022-09-13T08:11:34;3.47;;;2.67;;
23121;SDS011;11730;51.248;22.534;2022-09-13T08:14:06;2.60;;;2.40;;
23121;SDS011;11730;51.248;22.534;2022-09-13T08:16:35;3.03;;;2.60;;
23121;SDS011;11730;51.248;22.534;2022-09-13T08:19:02;7.30;;;2.80;;
23121;SDS011;11730;51.248;22.534;2022-09-13T08:21:35;5.07;;;2.88;;
23121;SDS011;11730;51.248;22.534;2022-09-13T08:24:04;4.57;;;3.00;;
23121;SDS011;11730;51.248;22.534;2022-09-13T08:26:32;3.88;;;2.67;;
23121;SDS011;11730;51.248;22.534;2022-09-13T08:29:02;3.80;;;2.97;;
23121;SDS011;11730;51.248;22.534;2022-09-13T08:31:30;5.10;;;2.60;;
23121;SDS011;11730;51.248;22.534;2022-09-13T08:33:58;5.25;;;2.80;;
23121;SDS011;11730;51.248;22.534;2022-09-13T08:36:25;6.00;;;2.88;;
23121;SDS011;11730;51.248;22.534;2022-09-13T08:38:57;5.95;;;2.72;;
23121;SDS011;11730;51.248;22.534;2022-09-13T08:49:51;5.00;;;2.38;;
23121;SDS011;11730;51.248;22.534;2022-09-13T08:52:29;3.65;;;2.20;;
23121;SDS011;11730;51.248;22.534;2022-09-13T08:55:17;2.72;;;2.13;;
23121;SDS011;11730;51.248;22.534;2022-09-13T08:57:51;3.25;;;2.35;;
23121;SDS011;11730;51.248;22.534;2022-09-13T09:00:37;2.50;;;2.15;;
23121;SDS011;11730;51.248;22.534;2022-09-13T09:06:07;2.10;;;1.90;;
23121;SDS011;11730;51.248;22.534;2022-09-13T09:08:44;2.50;;;1.60;;
23121;SDS011;11730;51.248;22.534;2022-09-13T09:11:35;2.30;;;1.80;;
23121;SDS011;11730;51.248;22.534;2022-09-13T09:14:29;2.58;;;2.13;;
23121;SDS011;11730;51.248;22.534;2022-09-13T09:17:01;2.67;;;2.00;;
23121;SDS011;11730;51.248;22.534;2022-09-13T09:19:36;2.78;;;2.22;;
23121;SDS011;11730;51.248;22.534;2022-09-13T09:22:19;5.20;;;2.10;;
23121;SDS011;11730;51.248;22.534;2022-09-13T09:24:50;2.08;;;1.88;;
23121;SDS011;11730;51.248;22.534;2022-09-13T09:27:21;3.28;;;2.03;;
23121;SDS011;11730;51.248;22.534;2022-09-13T09:29:49;2.58;;;2.38;;
23121;SDS011;11730;51.248;22.534;2022-09-13T09:37:40;1.95;;;1.67;;
23121;SDS011;11730;51.248;22.534;2022-09-13T09:40:11;3.22;;;2.17;;
23121;SDS011;11730;51.248;22.534;2022-09-13T09:42:44;3.58;;;2.40;;
23121;SDS011;11730;51.248;22.534;2022-09-13T09:48:06;6.72;;;2.58;;
23121;SDS011;11730;51.248;22.534;2022-09-13T09:50:39;5.28;;;2.30;;
23121;SDS011;11730;51.248;22.534;2022-09-13T09:53:13;4.63;;;2.20;;
23121;SDS011;11730;51.248;22.534;2022-09-13T09:56:03;5.20;;;2.38;;
23121;SDS011;11730;51.248;22.534;2022-09-13T09:58:42;4.70;;;2.58;;
23121;SDS011;11730;51.248;22.534;2022-09-13T10:01:30;6.03;;;3.13;;
23121;SDS011;11730;51.248;22.534;2022-09-13T10:06:34;3.03;;;2.10;;
23121;SDS011;11730;51.248;22.534;2022-09-13T10:09:04;2.90;;;2.10;;
23121;SDS011;11730;51.248;22.534;2022-09-13T10:17:36;5.72;;;2.70;;
23121;SDS011;11730;51.248;22.534;2022-09-13T10:22:25;6.88;;;2.78;;
23121;SDS011;11730;51.248;22.534;2022-09-13T10:24:53;7.40;;;2.70;;
23121;SDS011;11730;51.248;22.534;2022-09-13T10:27:21;7.35;;;2.33;;
23121;SDS011;11730;51.248;22.534;2022-09-13T10:30:22;3.45;;;2.33;;
23121;SDS011;11730;51.248;22.534;2022-09-13T10:32:56;7.97;;;2.70;;
23121;SDS011;11730;51.248;22.534;2022-09-13T10:35:24;5.63;;;2.75;;
23121;SDS011;11730;51.248;22.534;2022-09-13T10:37:51;2.80;;;2.20;;
23121;SDS011;11730;51.248;22.534;2022-09-13T10:42:57;4.95;;;3.25;;
23121;SDS011;11730;51.248;22.534;2022-09-13T10:45:28;5.88;;;3.13;;
23121;SDS011;11730;51.248;22.534;2022-09-13T10:48:04;7.20;;;2.83;;
23121;SDS011;11730;51.248;22.534;2022-09-13T10:50:38;3.63;;;2.13;;
23121;SDS011;11730;51.248;22.534;2022-09-13T10:53:07;3.00;;;2.05;;
23121;SDS011;11730;51.248;22.534;2022-09-13T10:55:56;5.75;;;2.33;;
23121;SDS011;11730;51.248;22.534;2022-09-13T10:58:23;7.47;;;2.90;;
23121;SDS011;11730;51.248;22.534;2022-09-13T11:26:04;5.93;;;1.98;;
23121;SDS011;11730;51.248;22.534;2022-09-13T12:01:59;2.15;;;1.70;;
23121;SDS011;11730;51.248;22.534;2022-09-13T12:04:40;2.78;;;1.95;;
23121;SDS011;11730;51.248;22.534;2022-09-13T12:07:11;5.03;;;1.60;;
23121;SDS011;11730;51.248;22.534;2022-09-13T12:09:46;2.05;;;1.70;;
23121;SDS011;11730;51.248;22.534;2022-09-13T12:12:22;5.43;;;1.77;;
23121;SDS011;11730;51.248;22.534;2022-09-13T12:14:56;3.55;;;1.85;;
23121;SDS011;11730;51.248;22.534;2022-09-13T12:17:38;5.07;;;1.75;;
23121;SDS011;11730;51.248;22.534;2022-09-13T12:20:32;2.65;;;1.52;;
23121;SDS011;11730;51.248;22.534;2022-09-13T12:22:59;4.43;;;2.22;;
23121;SDS011;11730;51.248;22.534;2022-09-13T12:25:35;4.43;;;2.20;;
23121;SDS011;11730;51.248;22.534;2022-09-13T12:28:30;5.07;;;1.95;;
23121;SDS011;11730;51.248;22.534;2022-09-13T12:31:13;3.92;;;1.92;;
23121;SDS011;11730;51.248;22.534;2022-09-13T12:33:45;5.50;;;2.47;;
23121;SDS011;11730;51.248;22.534;2022-09-13T12:36:21;4.28;;;2.30;;
23121;SDS011;11730;51.248;22.534;2022-09-13T13:01:34;6.72;;;1.92;;
23121;SDS011;11730;51.248;22.534;2022-09-13T13:04:09;3.67;;;2.08;;
23121;SDS011;11730;51.248;22.534;2022-09-13T13:07:04;9.45;;;5.15;;
23121;SDS011;11730;51.248;22.534;2022-09-13T13:12:10;6.22;;;2.20;;
23121;SDS011;11730;51.248;22.534;2022-09-13T13:14:50;5.25;;;2.30;;
23121;SDS011;11730;51.248;22.534;2022-09-13T13:33:59;5.35;;;2.72;;
23121;SDS011;11730;51.248;22.534;2022-09-13T13:36:28;7.22;;;3.03;;
23121;SDS011;11730;51.248;22.534;2022-09-13T13:39:00;3.50;;;2.30;;
23121;SDS011;11730;51.248;22.534;2022-09-13T13:46:49;8.48;;;3.88;;
23121;SDS011;11730;51.248;22.534;2022-09-13T14:00:11;5.15;;;2.40;;
23121;SDS011;11730;51.248;22.534;2022-09-13T14:02:44;2.72;;;2.30;;
23121;SDS011;11730;51.248;22.534;2022-09-13T14:21:40;2.97;;;2.33;;
23121;SDS011;11730;51.248;22.534;2022-09-13T14:24:10;5.50;;;3.47;;
23121;SDS011;11730;51.248;22.534;2022-09-13T14:26:42;3.58;;;2.78;;
23121;SDS011;11730;51.248;22.534;2022-09-13T14:29:11;4.30;;;2.65;;
23121;SDS011;11730;51.248;22.534;2022-09-13T14:31:49;9.02;;;3.35;;
23121;SDS011;11730;51.248;22.534;2022-09-13T14:34:22;7.30;;;2.90;;
23121;SDS011;11730;51.248;22.534;2022-09-13T14:36:54;8.57;;;2.30;;
23121;SDS011;11730;51.248;22.534;2022-09-13T14:39:22;3.65;;;2.40;;
23121;SDS011;11730;51.248;22.534;2022-09-13T14:42:00;9.90;;;2.50;;
23121;SDS011;11730;51.248;22.534;2022-09-13T14:44:42;3.20;;;2.35;;
23121;SDS011;11730;51.248;22.534;2022-09-13T14:49:54;3.20;;;2.33;;
23121;SDS011;11730;51.248;22.534;2022-09-13T14:52:30;5.25;;;2.20;;
23121;SDS011;11730;51.248;22.534;2022-09-13T14:55:02;4.33;;;2.30;;
23121;SDS011;11730;51.248;22.534;2022-09-13T14:57:36;6.63;;;2.72;;
23121;SDS011;11730;51.248;22.534;2022-09-13T15:02:40;3.67;;;2.78;;
23121;SDS011;11730;51.248;22.534;2022-09-13T15:05:32;8.20;;;3.22;;
23121;SDS011;11730;51.248;22.534;2022-09-13T15:08:15;6.03;;;2.20;;
23121;SDS011;11730;51.248;22.534;2022-09-13T15:11:06;5.57;;;2.55;;
23121;SDS011;11730;51.248;22.534;2022-09-13T15:13:38;5.65;;;2.50;;
23121;SDS011;11730;51.248;22.534;2022-09-13T15:16:45;3.50;;;2.63;;
23121;SDS011;11730;51.248;22.534;2022-09-13T15:19:14;5.22;;;2.33;;
23121;SDS011;11730;51.248;22.534;2022-09-13T15:21:42;4.45;;;2.28;;
23121;SDS011;11730;51.248;22.534;2022-09-13T15:24:21;4.40;;;2.63;;
23121;SDS011;11730;51.248;22.534;2022-09-13T15:27:02;3.72;;;2.50;;
23121;SDS011;11730;51.248;22.534;2022-09-13T15:29:31;5.28;;;2.30;;
23121;SDS011;11730;51.248;22.534;2022-09-13T15:32:03;7.35;;;2.80;;
23121;SDS011;11730;51.248;22.534;2022-09-13T15:34:31;9.10;;;2.70;;
23121;SDS011;11730;51.248;22.534;2022-09-13T15:39:47;3.63;;;2.70;;
23121;SDS011;11730;51.248;22.534;2022-09-13T15:42:15;3.97;;;2.50;;
23121;SDS011;11730;51.248;22.534;2022-09-13T15:44:42;3.83;;;2.65;;
23121;SDS011;11730;51.248;22.534;2022-09-13T15:47:10;5.40;;;2.65;;
23121;SDS011;11730;51.248;22.534;2022-09-13T15:49:47;5.22;;;2.95;;
23121;SDS011;11730;51.248;22.534;2022-09-13T15:52:17;6.38;;;3.30;;
23121;SDS011;11730;51.248;22.534;2022-09-13T15:54:46;8.02;;;3.30;;
23121;SDS011;11730;51.248;22.534;2022-09-13T15:57:18;6.13;;;3.38;;
23121;SDS011;11730;51.248;22.534;2022-09-13T15:59:46;4.78;;;3.50;;
23121;SDS011;11730;51.248;22.534;2022-09-13T16:02:24;6.43;;;3.17;;
23121;SDS011;11730;51.248;22.534;2022-09-13T16:04:54;9.32;;;3.00;;
23121;SDS011;11730;51.248;22.534;2022-09-13T16:07:21;8.18;;;3.40;;
23121;SDS011;11730;51.248;22.534;2022-09-13T16:09:50;3.38;;;3.00;;
23121;SDS011;11730;51.248;22.534;2022-09-13T16:12:18;5.70;;;3.53;;
23121;SDS011;11730;51.248;22.534;2022-09-13T16:14:48;4.55;;;3.10;;
23121;SDS011;11730;51.248;22.534;2022-09-13T16:17:18;8.90;;;3.63;;
23121;SDS011;11730;51.248;22.534;2022-09-13T16:19:50;6.05;;;3.70;;
23121;SDS011;11730;51.248;22.534;2022-09-13T16:22:17;6.97;;;3.78;;
23121;SDS011;11730;51.248;22.534;2022-09-13T16:24:44;8.00;;;3.80;;
23121;SDS011;11730;51.248;22.534;2022-09-13T16:27:12;8.57;;;4.13;;
23121;SDS011;11730;51.248;22.534;2022-09-13T16:29:40;11.25;;;3.72;;
23121;SDS011;11730;51.248;22.534;2022-09-13T16:32:07;6.32;;;4.40;;
23121;SDS011;11730;51.248;22.534;2022-09-13T16:34:34;4.90;;;3.72;;
23121;SDS011;11730;51.248;22.534;2022-09-13T16:37:01;8.82;;;5.28;;
23121;SDS011;11730;51.248;22.534;2022-09-13T16:39:28;11.23;;;7.47;;
23121;SDS011;11730;51.248;22.534;2022-09-13T16:41:55;12.32;;;6.25;;
23121;SDS011;11730;51.248;22.534;2022-09-13T16:44:22;9.32;;;6.78;;
23121;SDS011;11730;51.248;22.534;2022-09-13T16:46:49;10.93;;;6.20;;
23121;SDS011;11730;51.248;22.534;2022-09-13T16:49:16;6.95;;;5.50;;
23121;SDS011;11730;51.248;22.534;2022-09-13T16:51:43;11.75;;;8.05;;
23121;SDS011;11730;51.248;22.534;2022-09-13T16:54:10;11.65;;;7.38;;
23121;SDS011;11730;51.248;22.534;2022-09-13T16:56:37;11.85;;;7.35;;
23121;SDS011;11730;51.248;22.534;2022-09-13T16:59:04;12.07;;;6.60;;
23121;SDS011;11730;51.248;22.534;2022-09-13T17:01:31;24.27;;;15.20;;
23121;SDS011;11730;51.248;22.534;2022-09-13T17:03:58;16.88;;;9.57;;
23121;SDS011;11730;51.248;22.534;2022-09-13T17:06:25;16.98;;;8.80;;
23121;SDS011;11730;51.248;22.534;2022-09-13T17:08:57;13.68;;;6.40;;
23121;SDS011;11730;51.248;22.534;2022-09-13T17:11:29;11.82;;;6.38;;
23121;SDS011;11730;51.248;22.534;2022-09-13T17:13:59;8.88;;;6.82;;
23121;SDS011;11730;51.248;22.534;2022-09-13T17:16:31;12.35;;;6.25;;
23121;SDS011;11730;51.248;22.534;2022-09-13T17:19:02;17.13;;;9.80;;
23121;SDS011;11730;51.248;22.534;2022-09-13T17:21:31;10.65;;;5.72;;
23121;SDS011;11730;51.248;22.534;2022-09-13T17:23:59;15.43;;;10.18;;
23121;SDS011;11730;51.248;22.534;2022-09-13T17:26:27;13.32;;;9.35;;
23121;SDS011;11730;51.248;22.534;2022-09-13T17:28:54;13.18;;;6.88;;
23121;SDS011;11730;51.248;22.534;2022-09-13T17:31:21;11.98;;;6.43;;
23121;SDS011;11730;51.248;22.534;2022-09-13T17:33:48;11.13;;;6.47;;
23121;SDS011;11730;51.248;22.534;2022-09-13T17:36:16;11.85;;;8.02;;
23121;SDS011;11730;51.248;22.534;2022-09-13T17:38:43;11.82;;;6.97;;
23121;SDS011;11730;51.248;22.534;2022-09-13T17:43:39;9.98;;;6.35;;
23121;SDS011;11730;51.248;22.534;2022-09-13T17:46:18;10.27;;;5.38;;
23121;SDS011;11730;51.248;22.534;2022-09-13T17:48:48;9.70;;;6.90;;
23121;SDS011;11730;51.248;22.534;2022-09-13T17:51:21;9.43;;;6.60;;
23121;SDS011;11730;51.248;22.534;2022-09-13T17:56:19;10.52;;;5.65;;
23121;SDS011;11730;51.248;22.534;2022-09-13T17:58:52;10.02;;;6.38;;
23121;SDS011;11730;51.248;22.534;2022-09-13T18:01:19;8.18;;;6.05;;
23121;SDS011;11730;51.248;22.534;2022-09-13T18:03:46;11.00;;;8.68;;
23121;SDS011;11730;51.248;22.534;2022-09-13T18:06:13;9.13;;;6.68;;
23121;SDS011;11730;51.248;22.534;2022-09-13T18:08:40;11.30;;;6.82;;
23121;SDS011;11730;51.248;22.534;2022-09-13T18:11:12;10.70;;;5.97;;
23121;SDS011;11730;51.248;22.534;2022-09-13T18:13:47;18.88;;;9.30;;
23121;SDS011;11730;51.248;22.534;2022-09-13T18:16:15;12.63;;;8.18;;
23121;SDS011;11730;51.248;22.534;2022-09-13T18:18:47;14.27;;;8.63;;
23121;SDS011;11730;51.248;22.534;2022-09-13T18:21:15;15.18;;;7.22;;
23121;SDS011;11730;51.248;22.534;2022-09-13T18:23:48;12.90;;;7.68;;
23121;SDS011;11730;51.248;22.534;2022-09-13T18:26:17;13.07;;;7.47;;
23121;SDS011;11730;51.248;22.534;2022-09-13T18:28:46;21.85;;;13.98;;
23121;SDS011;11730;51.248;22.534;2022-09-13T18:31:15;14.70;;;9.25;;
23121;SDS011;11730;51.248;22.534;2022-09-13T18:33:43;13.52;;;8.07;;
23121;SDS011;11730;51.248;22.534;2022-09-13T18:36:12;14.27;;;8.60;;
23121;SDS011;11730;51.248;22.534;2022-09-13T18:38:41;16.92;;;10.15;;
23121;SDS011;11730;51.248;22.534;2022-09-13T18:41:14;12.88;;;8.68;;
23121;SDS011;11730;51.248;22.534;2022-09-13T18:43:43;17.35;;;9.10;;
23121;SDS011;11730;51.248;22.534;2022-09-13T18:46:12;14.30;;;10.18;;
23121;SDS011;11730;51.248;22.534;2022-09-13T18:48:42;18.63;;;11.40;;
23121;SDS011;11730;51.248;22.534;2022-09-13T18:51:11;15.07;;;10.70;;
23121;SDS011;11730;51.248;22.534;2022-09-13T18:53:43;18.63;;;10.98;;
23121;SDS011;11730;51.248;22.534;2022-09-13T18:56:12;15.40;;;11.57;;